sensor_id;sensor_type;location;lat;lon;timestamp;temperature;humidity
8979;DHT22;4524;51.364;5.448;2022-11-11T00:01:47;9.70;1.00
8979;DHT22;4524;51.364;5.448;2022-11-11T00:04:33;9.70;1.00
8979;DHT22;4524;51.364;5.448;2022-11-11T00:07:20;9.70;1.00
8979;DHT22;4524;51.364;5.448;2022-11-11T00:10:07;9.70;1.00
8979;DHT22;4524;51.364;5.448;2022-11-11T00:12:57;9.70;1.00
8979;DHT22;4524;51.364;5.448;2022-11-11T00:15:45;9.80;1.00
8979;DHT22;4524;51.364;5.448;2022-11-11T00:18:32;9.90;1.00
8979;DHT22;4524;51.364;5.448;2022-11-11T00:21:36;10.00;1.00
8979;DHT22;4524;51.364;5.448;2022-11-11T00:24:40;10.10;1.00
8979;DHT22;4524;51.364;5.448;2022-11-11T00:27:44;10.20;1.00
8979;DHT22;4524;51.364;5.448;2022-11-11T00:30:31;10.20;1.00
8979;DHT22;4524;51.364;5.448;2022-11-11T00:33:19;10.30;1.00
8979;DHT22;4524;51.364;5.448;2022-11-11T00:36:06;10.40;1.00
8979;DHT22;4524;51.364;5.448;2022-11-11T00:38:53;10.50;1.00
8979;DHT22;4524;51.364;5.448;2022-11-11T00:41:40;10.40;1.00
8979;DHT22;4524;51.364;5.448;2022-11-11T00:44:26;10.40;1.00
8979;DHT22;4524;51.364;5.448;2022-11-11T00:47:13;10.40;1.00
8979;DHT22;4524;51.364;5.448;2022-11-11T00:50:20;10.50;1.00
8979;DHT22;4524;51.364;5.448;2022-11-11T00:53:26;10.50;1.00
8979;DHT22;4524;51.364;5.448;2022-11-11T00:56:12;10.50;1.00
8979;DHT22;4524;51.364;5.448;2022-11-11T00:58:59;10.50;1.00
8979;DHT22;4524;51.364;5.448;2022-11-11T01:01:46;10.50;1.00
8979;DHT22;4524;51.364;5.448;2022-11-11T01:04:32;10.50;1.00
8979;DHT22;4524;51.364;5.448;2022-11-11T01:07:20;10.50;1.00
8979;DHT22;4524;51.364;5.448;2022-11-11T01:10:07;10.60;1.00
8979;DHT22;4524;51.364;5.448;2022-11-11T01:12:54;10.60;1.00
8979;DHT22;4524;51.364;5.448;2022-11-11T01:15:59;10.60;1.00
8979;DHT22;4524;51.364;5.448;2022-11-11T01:18:46;10.60;1.00
8979;DHT22;4524;51.364;5.448;2022-11-11T01:21:33;10.70;1.00
8979;DHT22;4524;51.364;5.448;2022-11-11T01:24:21;10.70;1.00
8979;DHT22;4524;51.364;5.448;2022-11-11T01:27:08;10.70;1.00
8979;DHT22;4524;51.364;5.448;2022-11-11T01:29:54;10.70;1.00
8979;DHT22;4524;51.364;5.448;2022-11-11T01:32:41;10.80;1.00
8979;DHT22;4524;51.364;5.448;2022-11-11T01:35:28;10.80;1.00
8979;DHT22;4524;51.364;5.448;2022-11-11T01:38:14;10.80;1.00
8979;DHT22;4524;51.364;5.448;2022-11-11T01:41:03;10.80;1.00
8979;DHT22;4524;51.364;5.448;2022-11-11T01:44:43;10.80;1.00
8979;DHT22;4524;51.364;5.448;2022-11-11T01:47:30;10.80;1.00
8979;DHT22;4524;51.364;5.448;2022-11-11T01:50:59;10.80;1.00
8979;DHT22;4524;51.364;5.448;2022-11-11T01:53:47;10.80;1.00
8979;DHT22;4524;51.364;5.448;2022-11-11T01:56:36;10.80;1.00
8979;DHT22;4524;51.364;5.448;2022-11-11T01:59:24;10.80;1.00
8979;DHT22;4524;51.364;5.448;2022-11-11T02:02:16;10.70;1.00
8979;DHT22;4524;51.364;5.448;2022-11-11T02:05:08;10.80;1.00
8979;DHT22;4524;51.364;5.448;2022-11-11T02:08:15;10.80;1.00
8979;DHT22;4524;51.364;5.448;2022-11-11T02:11:18;10.70;1.00
8979;DHT22;4524;51.364;5.448;2022-11-11T02:14:27;10.70;1.00
8979;DHT22;4524;51.364;5.448;2022-11-11T02:17:25;10.70;1.00
8979;DHT22;4524;51.364;5.448;2022-11-11T02:20:14;10.70;1.00
8979;DHT22;4524;51.364;5.448;2022-11-11T02:23:06;10.70;1.00
8979;DHT22;4524;51.364;5.448;2022-11-11T02:25:56;10.70;1.00
8979;DHT22;4524;51.364;5.448;2022-11-11T02:28:45;10.70;1.00
8979;DHT22;4524;51.364;5.448;2022-11-11T02:31:32;10.70;1.00
8979;DHT22;4524;51.364;5.448;2022-11-11T02:34:18;10.70;1.00
8979;DHT22;4524;51.364;5.448;2022-11-11T02:37:07;10.70;1.00
8979;DHT22;4524;51.364;5.448;2022-11-11T02:39:57;10.70;1.00
8979;DHT22;4524;51.364;5.448;2022-11-11T02:42:51;10.80;1.00
8979;DHT22;4524;51.364;5.448;2022-11-11T02:45:37;10.70;1.00
8979;DHT22;4524;51.364;5.448;2022-11-11T02:48:24;10.60;1.00
8979;DHT22;4524;51.364;5.448;2022-11-11T02:51:11;10.60;1.00
8979;DHT22;4524;51.364;5.448;2022-11-11T02:53:58;10.60;1.00
8979;DHT22;4524;51.364;5.448;2022-11-11T02:56:47;10.70;1.00
8979;DHT22;4524;51.364;5.448;2022-11-11T02:59:55;10.60;1.00
8979;DHT22;4524;51.364;5.448;2022-11-11T03:02:42;10.60;1.00
8979;DHT22;4524;51.364;5.448;2022-11-11T03:05:29;10.60;1.00
8979;DHT22;4524;51.364;5.448;2022-11-11T03:08:15;10.60;1.00
8979;DHT22;4524;51.364;5.448;2022-11-11T03:11:02;10.50;1.00
8979;DHT22;4524;51.364;5.448;2022-11-11T03:13:49;10.50;1.00
8979;DHT22;4524;51.364;5.448;2022-11-11T03:16:37;10.50;1.00
8979;DHT22;4524;51.364;5.448;2022-11-11T03:19:41;10.50;1.00
8979;DHT22;4524;51.364;5.448;2022-11-11T03:22:27;10.40;1.00
8979;DHT22;4524;51.364;5.448;2022-11-11T03:25:36;10.40;1.00
8979;DHT22;4524;51.364;5.448;2022-11-11T03:28:25;10.40;1.00
8979;DHT22;4524;51.364;5.448;2022-11-11T03:31:12;10.30;1.00
8979;DHT22;4524;51.364;5.448;2022-11-11T03:34:00;10.40;1.00
8979;DHT22;4524;51.364;5.448;2022-11-11T03:37:03;10.40;1.00
8979;DHT22;4524;51.364;5.448;2022-11-11T03:40:09;10.40;1.00
8979;DHT22;4524;51.364;5.448;2022-11-11T03:42:56;10.30;1.00
8979;DHT22;4524;51.364;5.448;2022-11-11T03:45:49;10.20;1.00
8979;DHT22;4524;51.364;5.448;2022-11-11T03:48:36;10.00;1.00
8979;DHT22;4524;51.364;5.448;2022-11-11T03:51:23;9.90;1.00
8979;DHT22;4524;51.364;5.448;2022-11-11T03:54:10;9.80;1.00
8979;DHT22;4524;51.364;5.448;2022-11-11T03:56:56;9.70;1.00
8979;DHT22;4524;51.364;5.448;2022-11-11T04:00:04;9.60;1.00
8979;DHT22;4524;51.364;5.448;2022-11-11T04:03:03;9.60;1.00
8979;DHT22;4524;51.364;5.448;2022-11-11T04:06:08;9.50;1.00
8979;DHT22;4524;51.364;5.448;2022-11-11T04:09:14;9.40;1.00
8979;DHT22;4524;51.364;5.448;2022-11-11T04:12:18;9.40;1.00
8979;DHT22;4524;51.364;5.448;2022-11-11T04:15:05;9.40;1.00
8979;DHT22;4524;51.364;5.448;2022-11-11T04:18:10;9.30;1.00
8979;DHT22;4524;51.364;5.448;2022-11-11T04:20:56;9.20;1.00
8979;DHT22;4524;51.364;5.448;2022-11-11T04:24:01;9.20;1.00
8979;DHT22;4524;51.364;5.448;2022-11-11T04:26:48;9.10;1.00
8979;DHT22;4524;51.364;5.448;2022-11-11T04:29:34;9.00;1.00
8979;DHT22;4524;51.364;5.448;2022-11-11T04:32:22;9.00;1.00
8979;DHT22;4524;51.364;5.448;2022-11-11T04:35:19;8.90;1.00
8979;DHT22;4524;51.364;5.448;2022-11-11T04:38:08;8.90;1.00
8979;DHT22;4524;51.364;5.448;2022-11-11T04:41:12;8.90;1.00
8979;DHT22;4524;51.364;5.448;2022-11-11T04:44:00;8.80;5.20
8979;DHT22;4524;51.364;5.448;2022-11-11T04:47:04;8.80;1.00
8979;DHT22;4524;51.364;5.448;2022-11-11T04:49:51;8.80;1.00
8979;DHT22;4524;51.364;5.448;2022-11-11T04:52:37;8.70;1.00
8979;DHT22;4524;51.364;5.448;2022-11-11T04:55:24;8.70;2.10
8979;DHT22;4524;51.364;5.448;2022-11-11T04:58:30;8.70;30.00
8979;DHT22;4524;51.364;5.448;2022-11-11T05:01:18;8.70;1.00
8979;DHT22;4524;51.364;5.448;2022-11-11T05:04:18;8.70;1.00
8979;DHT22;4524;51.364;5.448;2022-11-11T05:07:05;8.60;1.00
8979;DHT22;4524;51.364;5.448;2022-11-11T05:10:09;8.60;1.00
8979;DHT22;4524;51.364;5.448;2022-11-11T05:12:55;8.60;1.00
8979;DHT22;4524;51.364;5.448;2022-11-11T05:16:10;8.60;1.00
8979;DHT22;4524;51.364;5.448;2022-11-11T05:19:18;8.50;1.00
8979;DHT22;4524;51.364;5.448;2022-11-11T05:22:24;8.50;3.90
8979;DHT22;4524;51.364;5.448;2022-11-11T05:25:11;8.50;24.70
8979;DHT22;4524;51.364;5.448;2022-11-11T05:28:15;8.50;12.30
8979;DHT22;4524;51.364;5.448;2022-11-11T05:31:01;8.50;21.60
8979;DHT22;4524;51.364;5.448;2022-11-11T05:33:47;8.40;16.00
8979;DHT22;4524;51.364;5.448;2022-11-11T05:36:35;8.40;10.10
8979;DHT22;4524;51.364;5.448;2022-11-11T05:39:21;8.40;35.30
8979;DHT22;4524;51.364;5.448;2022-11-11T05:42:08;8.40;34.70
8979;DHT22;4524;51.364;5.448;2022-11-11T05:44:54;8.30;37.70
8979;DHT22;4524;51.364;5.448;2022-11-11T05:47:41;8.40;41.80
8979;DHT22;4524;51.364;5.448;2022-11-11T05:50:28;8.40;12.10
8979;DHT22;4524;51.364;5.448;2022-11-11T05:53:16;8.30;4.70
8979;DHT22;4524;51.364;5.448;2022-11-11T05:56:09;8.30;19.00
8979;DHT22;4524;51.364;5.448;2022-11-11T05:58:55;8.30;20.80
8979;DHT22;4524;51.364;5.448;2022-11-11T06:01:42;8.30;1.00
8979;DHT22;4524;51.364;5.448;2022-11-11T06:04:28;8.20;11.10
8979;DHT22;4524;51.364;5.448;2022-11-11T06:07:14;8.20;10.10
8979;DHT22;4524;51.364;5.448;2022-11-11T06:10:03;8.20;27.20
8979;DHT22;4524;51.364;5.448;2022-11-11T06:13:03;8.20;26.60
8979;DHT22;4524;51.364;5.448;2022-11-11T06:15:51;8.20;6.50
8979;DHT22;4524;51.364;5.448;2022-11-11T06:18:38;8.20;26.80
8979;DHT22;4524;51.364;5.448;2022-11-11T06:21:24;8.20;64.50
8979;DHT22;4524;51.364;5.448;2022-11-11T06:24:11;8.10;75.30
8979;DHT22;4524;51.364;5.448;2022-11-11T06:26:59;8.10;83.60
8979;DHT22;4524;51.364;5.448;2022-11-11T06:29:45;8.10;72.80
8979;DHT22;4524;51.364;5.448;2022-11-11T06:32:32;8.00;88.50
8979;DHT22;4524;51.364;5.448;2022-11-11T06:35:18;8.00;88.70
8979;DHT22;4524;51.364;5.448;2022-11-11T06:38:06;8.00;68.60
8979;DHT22;4524;51.364;5.448;2022-11-11T06:40:52;8.00;69.80
8979;DHT22;4524;51.364;5.448;2022-11-11T06:43:40;8.00;70.20
8979;DHT22;4524;51.364;5.448;2022-11-11T06:46:27;8.10;85.30
8979;DHT22;4524;51.364;5.448;2022-11-11T06:49:14;8.10;60.10
8979;DHT22;4524;51.364;5.448;2022-11-11T06:52:00;8.00;53.20
8979;DHT22;4524;51.364;5.448;2022-11-11T06:54:47;8.00;80.60
8979;DHT22;4524;51.364;5.448;2022-11-11T06:57:33;8.00;78.90
8979;DHT22;4524;51.364;5.448;2022-11-11T07:00:21;8.00;76.40
8979;DHT22;4524;51.364;5.448;2022-11-11T07:03:10;8.00;55.30
8979;DHT22;4524;51.364;5.448;2022-11-11T07:05:59;8.00;41.60
8979;DHT22;4524;51.364;5.448;2022-11-11T07:08:46;8.00;54.10
8979;DHT22;4524;51.364;5.448;2022-11-11T07:11:32;8.00;40.00
8979;DHT22;4524;51.364;5.448;2022-11-11T07:14:19;8.00;37.10
8979;DHT22;4524;51.364;5.448;2022-11-11T07:17:07;8.10;76.80
8979;DHT22;4524;51.364;5.448;2022-11-11T07:19:53;8.10;68.50
8979;DHT22;4524;51.364;5.448;2022-11-11T07:22:40;8.00;58.10
8979;DHT22;4524;51.364;5.448;2022-11-11T07:25:26;8.00;44.10
8979;DHT22;4524;51.364;5.448;2022-11-11T07:28:13;8.00;85.30
8979;DHT22;4524;51.364;5.448;2022-11-11T07:31:00;8.10;92.80
8979;DHT22;4524;51.364;5.448;2022-11-11T07:33:47;8.10;90.10
8979;DHT22;4524;51.364;5.448;2022-11-11T07:36:34;8.00;92.00
8979;DHT22;4524;51.364;5.448;2022-11-11T07:39:20;8.10;95.70
8979;DHT22;4524;51.364;5.448;2022-11-11T07:42:07;8.10;98.50
8979;DHT22;4524;51.364;5.448;2022-11-11T07:45:13;8.10;99.90
8979;DHT22;4524;51.364;5.448;2022-11-11T07:48:00;8.20;99.90
8979;DHT22;4524;51.364;5.448;2022-11-11T07:50:50;8.10;99.90
8979;DHT22;4524;51.364;5.448;2022-11-11T07:53:37;8.20;99.90
8979;DHT22;4524;51.364;5.448;2022-11-11T07:56:23;8.20;96.70
8979;DHT22;4524;51.364;5.448;2022-11-11T07:59:10;8.30;92.20
8979;DHT22;4524;51.364;5.448;2022-11-11T08:01:56;8.30;73.10
8979;DHT22;4524;51.364;5.448;2022-11-11T08:04:43;8.30;86.80
8979;DHT22;4524;51.364;5.448;2022-11-11T08:07:33;8.40;57.40
8979;DHT22;4524;51.364;5.448;2022-11-11T08:10:19;8.50;39.40
8979;DHT22;4524;51.364;5.448;2022-11-11T08:13:07;8.50;39.20
8979;DHT22;4524;51.364;5.448;2022-11-11T08:16:13;8.60;23.50
8979;DHT22;4524;51.364;5.448;2022-11-11T08:19:00;8.60;26.40
8979;DHT22;4524;51.364;5.448;2022-11-11T08:21:46;8.70;29.40
8979;DHT22;4524;51.364;5.448;2022-11-11T08:24:34;8.80;15.60
8979;DHT22;4524;51.364;5.448;2022-11-11T08:27:41;8.80;1.00
8979;DHT22;4524;51.364;5.448;2022-11-11T08:30:28;8.80;1.00
8979;DHT22;4524;51.364;5.448;2022-11-11T08:33:14;8.90;1.00
8979;DHT22;4524;51.364;5.448;2022-11-11T08:36:19;9.00;1.00
8979;DHT22;4524;51.364;5.448;2022-11-11T08:39:07;9.00;1.00
8979;DHT22;4524;51.364;5.448;2022-11-11T08:41:55;9.10;1.00
8979;DHT22;4524;51.364;5.448;2022-11-11T08:44:42;9.20;1.00
8979;DHT22;4524;51.364;5.448;2022-11-11T08:47:28;9.30;1.00
8979;DHT22;4524;51.364;5.448;2022-11-11T08:50:15;9.40;1.00
8979;DHT22;4524;51.364;5.448;2022-11-11T08:53:02;9.50;1.00
8979;DHT22;4524;51.364;5.448;2022-11-11T08:55:49;9.60;1.00
8979;DHT22;4524;51.364;5.448;2022-11-11T08:58:37;9.70;1.00
8979;DHT22;4524;51.364;5.448;2022-11-11T09:01:24;9.70;1.00
8979;DHT22;4524;51.364;5.448;2022-11-11T09:04:10;9.80;1.00
8979;DHT22;4524;51.364;5.448;2022-11-11T09:07:17;9.80;1.00
8979;DHT22;4524;51.364;5.448;2022-11-11T09:10:04;9.90;1.00
8979;DHT22;4524;51.364;5.448;2022-11-11T09:12:55;9.90;1.00
8979;DHT22;4524;51.364;5.448;2022-11-11T09:15:42;10.00;1.00
8979;DHT22;4524;51.364;5.448;2022-11-11T09:18:29;10.10;99.90
8979;DHT22;4524;51.364;5.448;2022-11-11T09:21:16;10.10;99.90
8979;DHT22;4524;51.364;5.448;2022-11-11T09:24:03;10.20;1.00
8979;DHT22;4524;51.364;5.448;2022-11-11T09:26:50;10.20;99.90
8979;DHT22;4524;51.364;5.448;2022-11-11T09:29:37;10.30;99.90
8979;DHT22;4524;51.364;5.448;2022-11-11T09:32:25;10.40;99.90
8979;DHT22;4524;51.364;5.448;2022-11-11T09:35:11;10.50;99.90
8979;DHT22;4524;51.364;5.448;2022-11-11T09:37:59;10.60;99.90
8979;DHT22;4524;51.364;5.448;2022-11-11T09:40:56;10.70;99.90
8979;DHT22;4524;51.364;5.448;2022-11-11T09:43:51;10.70;99.90
8979;DHT22;4524;51.364;5.448;2022-11-11T09:46:43;10.80;99.90
8979;DHT22;4524;51.364;5.448;2022-11-11T09:49:50;10.90;99.90
8979;DHT22;4524;51.364;5.448;2022-11-11T09:52:45;10.90;99.90
8979;DHT22;4524;51.364;5.448;2022-11-11T09:55:35;11.00;99.90
8979;DHT22;4524;51.364;5.448;2022-11-11T09:58:27;11.10;99.90
8979;DHT22;4524;51.364;5.448;2022-11-11T10:01:18;11.10;99.90
8979;DHT22;4524;51.364;5.448;2022-11-11T10:04:23;11.30;99.90
8979;DHT22;4524;51.364;5.448;2022-11-11T10:07:22;11.30;99.90
8979;DHT22;4524;51.364;5.448;2022-11-11T10:10:22;11.50;99.90
8979;DHT22;4524;51.364;5.448;2022-11-11T10:13:13;11.50;99.90
8979;DHT22;4524;51.364;5.448;2022-11-11T10:16:05;11.60;99.90
8979;DHT22;4524;51.364;5.448;2022-11-11T10:19:09;11.70;99.90
8979;DHT22;4524;51.364;5.448;2022-11-11T10:22:01;11.80;99.90
8979;DHT22;4524;51.364;5.448;2022-11-11T10:25:07;11.90;99.90
8979;DHT22;4524;51.364;5.448;2022-11-11T10:27:57;12.00;99.90
8979;DHT22;4524;51.364;5.448;2022-11-11T10:30:45;12.20;99.90
8979;DHT22;4524;51.364;5.448;2022-11-11T10:33:39;12.30;99.90
8979;DHT22;4524;51.364;5.448;2022-11-11T10:36:28;12.40;99.90
8979;DHT22;4524;51.364;5.448;2022-11-11T10:39:24;12.60;99.90
8979;DHT22;4524;51.364;5.448;2022-11-11T10:42:16;12.60;99.90
8979;DHT22;4524;51.364;5.448;2022-11-11T10:45:09;12.70;99.90
8979;DHT22;4524;51.364;5.448;2022-11-11T10:48:00;12.70;99.90
8979;DHT22;4524;51.364;5.448;2022-11-11T10:50:50;12.80;99.90
8979;DHT22;4524;51.364;5.448;2022-11-11T10:53:45;12.90;99.90
8979;DHT22;4524;51.364;5.448;2022-11-11T10:56:36;13.10;99.90
8979;DHT22;4524;51.364;5.448;2022-11-11T10:59:31;13.10;99.90
8979;DHT22;4524;51.364;5.448;2022-11-11T11:02:23;13.20;99.90
8979;DHT22;4524;51.364;5.448;2022-11-11T11:05:16;13.30;99.90
8979;DHT22;4524;51.364;5.448;2022-11-11T11:08:07;13.20;99.90
8979;DHT22;4524;51.364;5.448;2022-11-11T11:10:56;13.30;99.90
8979;DHT22;4524;51.364;5.448;2022-11-11T11:13:47;13.30;99.90
8979;DHT22;4524;51.364;5.448;2022-11-11T11:16:38;13.40;99.90
8979;DHT22;4524;51.364;5.448;2022-11-11T11:19:29;13.30;99.90
8979;DHT22;4524;51.364;5.448;2022-11-11T11:22:16;13.40;99.90
8979;DHT22;4524;51.364;5.448;2022-11-11T11:25:10;13.40;99.90
8979;DHT22;4524;51.364;5.448;2022-11-11T11:28:08;13.40;99.90
8979;DHT22;4524;51.364;5.448;2022-11-11T11:31:00;13.50;99.90
8979;DHT22;4524;51.364;5.448;2022-11-11T11:33:53;13.60;99.90
8979;DHT22;4524;51.364;5.448;2022-11-11T11:36:39;13.70;99.90
8979;DHT22;4524;51.364;5.448;2022-11-11T11:39:33;13.70;99.90
8979;DHT22;4524;51.364;5.448;2022-11-11T11:42:29;13.80;99.90
8979;DHT22;4524;51.364;5.448;2022-11-11T11:45:20;13.80;99.90
8979;DHT22;4524;51.364;5.448;2022-11-11T11:48:17;13.90;99.90
8979;DHT22;4524;51.364;5.448;2022-11-11T11:51:30;13.90;99.90
8979;DHT22;4524;51.364;5.448;2022-11-11T11:54:48;14.00;99.90
8979;DHT22;4524;51.364;5.448;2022-11-11T11:57:45;14.00;99.90
8979;DHT22;4524;51.364;5.448;2022-11-11T12:00:40;14.10;99.90
8979;DHT22;4524;51.364;5.448;2022-11-11T12:07:13;14.10;99.90
8979;DHT22;4524;51.364;5.448;2022-11-11T12:10:09;14.10;99.90
8979;DHT22;4524;51.364;5.448;2022-11-11T12:13:08;14.10;99.90
8979;DHT22;4524;51.364;5.448;2022-11-11T12:16:06;14.10;99.90
8979;DHT22;4524;51.364;5.448;2022-11-11T12:19:06;14.10;99.90
8979;DHT22;4524;51.364;5.448;2022-11-11T12:22:03;14.10;99.90
8979;DHT22;4524;51.364;5.448;2022-11-11T12:25:00;14.10;99.90
8979;DHT22;4524;51.364;5.448;2022-11-11T12:27:55;14.10;99.90
8979;DHT22;4524;51.364;5.448;2022-11-11T12:30:48;14.20;99.90
8979;DHT22;4524;51.364;5.448;2022-11-11T12:33:53;14.20;99.90
8979;DHT22;4524;51.364;5.448;2022-11-11T12:36:52;14.30;99.90
8979;DHT22;4524;51.364;5.448;2022-11-11T12:39:55;14.20;99.90
8979;DHT22;4524;51.364;5.448;2022-11-11T12:42:56;14.30;99.90
8979;DHT22;4524;51.364;5.448;2022-11-11T12:45:48;14.30;99.90
8979;DHT22;4524;51.364;5.448;2022-11-11T12:48:48;14.40;99.90
8979;DHT22;4524;51.364;5.448;2022-11-11T12:51:46;14.40;99.90
8979;DHT22;4524;51.364;5.448;2022-11-11T12:54:41;14.40;99.90
8979;DHT22;4524;51.364;5.448;2022-11-11T12:57:35;14.50;99.90
8979;DHT22;4524;51.364;5.448;2022-11-11T13:00:26;14.50;99.90
8979;DHT22;4524;51.364;5.448;2022-11-11T13:03:34;14.50;99.90
8979;DHT22;4524;51.364;5.448;2022-11-11T13:06:48;14.50;99.90
8979;DHT22;4524;51.364;5.448;2022-11-11T13:09:49;14.40;99.90
8979;DHT22;4524;51.364;5.448;2022-11-11T13:12:46;14.40;99.90
8979;DHT22;4524;51.364;5.448;2022-11-11T13:15:35;14.40;99.90
8979;DHT22;4524;51.364;5.448;2022-11-11T13:18:26;14.30;99.90
8979;DHT22;4524;51.364;5.448;2022-11-11T13:21:16;14.30;99.90
8979;DHT22;4524;51.364;5.448;2022-11-11T13:24:12;14.30;99.90
8979;DHT22;4524;51.364;5.448;2022-11-11T13:27:02;14.20;99.90
8979;DHT22;4524;51.364;5.448;2022-11-11T13:30:16;14.20;99.90
8979;DHT22;4524;51.364;5.448;2022-11-11T13:33:09;14.20;99.90
8979;DHT22;4524;51.364;5.448;2022-11-11T13:35:58;14.10;99.90
8979;DHT22;4524;51.364;5.448;2022-11-11T13:38:49;14.10;99.90
8979;DHT22;4524;51.364;5.448;2022-11-11T13:41:39;14.10;99.90
8979;DHT22;4524;51.364;5.448;2022-11-11T13:44:30;14.10;99.90
8979;DHT22;4524;51.364;5.448;2022-11-11T13:47:21;14.10;99.90
8979;DHT22;4524;51.364;5.448;2022-11-11T13:50:12;14.10;99.90
8979;DHT22;4524;51.364;5.448;2022-11-11T13:53:02;14.10;99.90
8979;DHT22;4524;51.364;5.448;2022-11-11T13:55:51;14.10;99.90
8979;DHT22;4524;51.364;5.448;2022-11-11T13:58:40;14.10;99.90
8979;DHT22;4524;51.364;5.448;2022-11-11T14:01:33;14.10;99.90
8979;DHT22;4524;51.364;5.448;2022-11-11T14:04:28;14.10;99.90
8979;DHT22;4524;51.364;5.448;2022-11-11T14:07:46;14.10;99.90
8979;DHT22;4524;51.364;5.448;2022-11-11T14:10:54;14.10;99.90
8979;DHT22;4524;51.364;5.448;2022-11-11T14:13:42;14.00;99.90
8979;DHT22;4524;51.364;5.448;2022-11-11T14:17:03;14.00;99.90
8979;DHT22;4524;51.364;5.448;2022-11-11T14:19:51;14.00;99.90
8979;DHT22;4524;51.364;5.448;2022-11-11T14:22:37;13.90;99.90
8979;DHT22;4524;51.364;5.448;2022-11-11T14:25:25;13.90;99.90
8979;DHT22;4524;51.364;5.448;2022-11-11T14:28:22;13.90;99.90
8979;DHT22;4524;51.364;5.448;2022-11-11T14:31:32;13.90;99.90
8979;DHT22;4524;51.364;5.448;2022-11-11T14:34:48;13.90;99.90
8979;DHT22;4524;51.364;5.448;2022-11-11T14:37:54;13.90;99.90
8979;DHT22;4524;51.364;5.448;2022-11-11T14:40:43;13.80;99.90
8979;DHT22;4524;51.364;5.448;2022-11-11T14:43:35;13.80;99.90
8979;DHT22;4524;51.364;5.448;2022-11-11T14:46:22;13.70;99.90
8979;DHT22;4524;51.364;5.448;2022-11-11T14:49:08;13.70;99.90
8979;DHT22;4524;51.364;5.448;2022-11-11T14:51:57;13.70;99.90
8979;DHT22;4524;51.364;5.448;2022-11-11T14:55:07;13.60;99.90
8979;DHT22;4524;51.364;5.448;2022-11-11T14:57:58;13.50;99.90
8979;DHT22;4524;51.364;5.448;2022-11-11T15:00:49;13.50;99.90
8979;DHT22;4524;51.364;5.448;2022-11-11T15:03:40;13.40;99.90
8979;DHT22;4524;51.364;5.448;2022-11-11T15:06:33;13.40;99.90
8979;DHT22;4524;51.364;5.448;2022-11-11T15:09:55;13.30;99.90
8979;DHT22;4524;51.364;5.448;2022-11-11T15:12:55;13.20;99.90
8979;DHT22;4524;51.364;5.448;2022-11-11T15:15:51;13.10;99.90
8979;DHT22;4524;51.364;5.448;2022-11-11T15:18:51;13.00;99.90
8979;DHT22;4524;51.364;5.448;2022-11-11T15:21:50;12.90;99.90
8979;DHT22;4524;51.364;5.448;2022-11-11T15:24:45;12.90;99.90
8979;DHT22;4524;51.364;5.448;2022-11-11T15:27:42;12.80;99.90
8979;DHT22;4524;51.364;5.448;2022-11-11T15:30:44;12.60;99.90
8979;DHT22;4524;51.364;5.448;2022-11-11T15:33:44;12.60;99.90
8979;DHT22;4524;51.364;5.448;2022-11-11T15:36:44;12.50;99.90
8979;DHT22;4524;51.364;5.448;2022-11-11T15:39:38;12.40;99.90
8979;DHT22;4524;51.364;5.448;2022-11-11T15:42:28;12.40;99.90
8979;DHT22;4524;51.364;5.448;2022-11-11T15:45:20;12.20;99.90
8979;DHT22;4524;51.364;5.448;2022-11-11T15:48:16;12.00;99.90
8979;DHT22;4524;51.364;5.448;2022-11-11T15:51:24;11.90;99.90
8979;DHT22;4524;51.364;5.448;2022-11-11T15:54:17;11.80;99.90
8979;DHT22;4524;51.364;5.448;2022-11-11T15:57:23;11.80;99.90
8979;DHT22;4524;51.364;5.448;2022-11-11T16:00:28;11.70;99.90
8979;DHT22;4524;51.364;5.448;2022-11-11T16:03:19;11.60;99.90
8979;DHT22;4524;51.364;5.448;2022-11-11T16:06:09;11.60;99.90
8979;DHT22;4524;51.364;5.448;2022-11-11T16:08:56;11.50;99.90
8979;DHT22;4524;51.364;5.448;2022-11-11T16:11:43;11.40;99.90
8979;DHT22;4524;51.364;5.448;2022-11-11T16:14:33;11.30;99.90
8979;DHT22;4524;51.364;5.448;2022-11-11T16:17:24;11.20;99.90
8979;DHT22;4524;51.364;5.448;2022-11-11T16:20:15;11.20;99.90
8979;DHT22;4524;51.364;5.448;2022-11-11T16:23:06;11.10;99.90
8979;DHT22;4524;51.364;5.448;2022-11-11T16:25:56;11.00;99.90
8979;DHT22;4524;51.364;5.448;2022-11-11T16:28:46;11.00;99.90
8979;DHT22;4524;51.364;5.448;2022-11-11T16:31:37;10.90;99.90
8979;DHT22;4524;51.364;5.448;2022-11-11T16:34:41;10.80;99.90
8979;DHT22;4524;51.364;5.448;2022-11-11T16:37:49;10.80;99.90
8979;DHT22;4524;51.364;5.448;2022-11-11T16:40:40;10.70;99.90
8979;DHT22;4524;51.364;5.448;2022-11-11T16:43:29;10.70;99.90
8979;DHT22;4524;51.364;5.448;2022-11-11T16:46:38;10.60;99.90
8979;DHT22;4524;51.364;5.448;2022-11-11T16:49:28;10.60;99.90
8979;DHT22;4524;51.364;5.448;2022-11-11T16:52:18;10.50;99.90
8979;DHT22;4524;51.364;5.448;2022-11-11T16:55:08;10.50;99.90
8979;DHT22;4524;51.364;5.448;2022-11-11T16:57:57;10.40;99.90
8979;DHT22;4524;51.364;5.448;2022-11-11T17:00:45;10.40;99.90
8979;DHT22;4524;51.364;5.448;2022-11-11T17:03:32;10.40;99.90
8979;DHT22;4524;51.364;5.448;2022-11-11T17:06:19;10.30;99.90
8979;DHT22;4524;51.364;5.448;2022-11-11T17:09:33;10.30;99.90
8979;DHT22;4524;51.364;5.448;2022-11-11T17:12:29;10.20;99.90
8979;DHT22;4524;51.364;5.448;2022-11-11T17:15:17;10.10;99.90
8979;DHT22;4524;51.364;5.448;2022-11-11T17:18:04;10.10;99.90
8979;DHT22;4524;51.364;5.448;2022-11-11T17:20:53;10.00;99.90
8979;DHT22;4524;51.364;5.448;2022-11-11T17:23:40;10.00;99.90
8979;DHT22;4524;51.364;5.448;2022-11-11T17:26:26;10.00;99.90
8979;DHT22;4524;51.364;5.448;2022-11-11T17:29:14;9.90;99.90
8979;DHT22;4524;51.364;5.448;2022-11-11T17:32:00;9.90;99.90
8979;DHT22;4524;51.364;5.448;2022-11-11T17:34:47;9.90;99.90
8979;DHT22;4524;51.364;5.448;2022-11-11T17:37:34;9.90;99.90
8979;DHT22;4524;51.364;5.448;2022-11-11T17:40:22;9.90;99.90
8979;DHT22;4524;51.364;5.448;2022-11-11T17:43:08;9.80;99.90
8979;DHT22;4524;51.364;5.448;2022-11-11T17:45:59;9.70;99.90
8979;DHT22;4524;51.364;5.448;2022-11-11T17:48:45;9.60;1.00
8979;DHT22;4524;51.364;5.448;2022-11-11T17:51:32;9.60;99.90
8979;DHT22;4524;51.364;5.448;2022-11-11T17:54:18;9.60;1.00
8979;DHT22;4524;51.364;5.448;2022-11-11T17:57:04;9.50;1.00
8979;DHT22;4524;51.364;5.448;2022-11-11T17:59:51;9.50;1.00
8979;DHT22;4524;51.364;5.448;2022-11-11T18:02:39;9.50;99.90
8979;DHT22;4524;51.364;5.448;2022-11-11T18:05:25;9.50;99.90
8979;DHT22;4524;51.364;5.448;2022-11-11T18:08:12;9.40;99.90
8979;DHT22;4524;51.364;5.448;2022-11-11T18:10:59;9.40;99.90
8979;DHT22;4524;51.364;5.448;2022-11-11T18:13:45;9.40;99.90
8979;DHT22;4524;51.364;5.448;2022-11-11T18:16:32;9.40;99.90
8979;DHT22;4524;51.364;5.448;2022-11-11T18:19:19;9.40;99.90
8979;DHT22;4524;51.364;5.448;2022-11-11T18:22:06;9.30;99.90
8979;DHT22;4524;51.364;5.448;2022-11-11T18:24:56;9.30;99.90
8979;DHT22;4524;51.364;5.448;2022-11-11T18:27:42;9.20;1.00
8979;DHT22;4524;51.364;5.448;2022-11-11T18:30:30;9.20;99.90
8979;DHT22;4524;51.364;5.448;2022-11-11T18:33:16;9.20;99.90
8979;DHT22;4524;51.364;5.448;2022-11-11T18:36:07;9.20;1.00
8979;DHT22;4524;51.364;5.448;2022-11-11T18:38:54;9.10;99.90
8979;DHT22;4524;51.364;5.448;2022-11-11T18:41:41;9.10;99.90
8979;DHT22;4524;51.364;5.448;2022-11-11T18:44:28;9.00;1.00
8979;DHT22;4524;51.364;5.448;2022-11-11T18:47:14;9.00;99.90
8979;DHT22;4524;51.364;5.448;2022-11-11T18:50:01;9.00;99.90
8979;DHT22;4524;51.364;5.448;2022-11-11T18:52:48;8.90;99.90
8979;DHT22;4524;51.364;5.448;2022-11-11T18:55:35;8.90;99.90
8979;DHT22;4524;51.364;5.448;2022-11-11T18:58:21;8.90;99.90
8979;DHT22;4524;51.364;5.448;2022-11-11T19:01:10;8.80;99.90
8979;DHT22;4524;51.364;5.448;2022-11-11T19:03:59;8.80;99.90